createdAt,value
2017-08-05T00:00:31.845Z,991.23
2017-08-05T00:01:31.852Z,991.24
2017-08-05T00:02:31.849Z,991.24
2017-08-05T00:03:31.852Z,991.22
2017-08-05T00:04:31.857Z,991.23
2017-08-05T00:05:31.855Z,991.24
2017-08-05T00:06:31.869Z,991.23
2017-08-05T00:07:31.866Z,991.22
2017-08-05T00:08:31.870Z,991.23
2017-08-05T00:09:31.869Z,991.25
2017-08-05T00:10:31.875Z,991.21
2017-08-05T00:11:31.873Z,991.27
2017-08-05T00:12:31.874Z,991.21
2017-08-05T00:13:31.879Z,991.19
2017-08-05T00:14:31.878Z,991.17
2017-08-05T00:15:31.881Z,991.15
2017-08-05T00:16:31.884Z,991.15
2017-08-05T00:17:31.886Z,991.11
2017-08-05T00:18:31.889Z,991.2
2017-08-05T00:19:31.893Z,991.15
2017-08-05T00:20:31.894Z,991.15
2017-08-05T00:21:31.897Z,991.13
2017-08-05T00:22:31.900Z,991.14
2017-08-05T00:23:31.904Z,991.15
2017-08-05T00:24:31.906Z,991.13
2017-08-05T00:25:31.907Z,991.13
2017-08-05T00:26:31.921Z,991.14
2017-08-05T00:27:31.911Z,991.18
2017-08-05T00:28:31.914Z,991.14
2017-08-05T00:29:31.917Z,991.17
2017-08-05T00:30:31.925Z,991.16
2017-08-05T00:31:31.922Z,991.16
2017-08-05T00:32:31.923Z,991.12
2017-08-05T00:33:31.933Z,991.11
2017-08-05T00:34:31.959Z,991.11
2017-08-05T00:35:31.946Z,991.08
2017-08-05T00:36:31.953Z,991.09
2017-08-05T00:37:31.955Z,991.08
2017-08-05T00:38:31.942Z,991.09
2017-08-05T00:39:31.986Z,991.07
2017-08-05T00:40:31.946Z,991.1
2017-08-05T00:41:31.948Z,991.09
2017-08-05T00:42:31.957Z,991.1
2017-08-05T00:43:31.960Z,991.11
2017-08-05T00:44:31.960Z,991.04
2017-08-05T00:45:31.963Z,991.07
2017-08-05T00:46:31.962Z,991.07
2017-08-05T00:47:31.963Z,991.02
2017-08-05T00:48:31.969Z,991.07
2017-08-05T00:49:31.969Z,991.06
2017-08-05T00:50:31.972Z,991.04
2017-08-05T00:51:31.978Z,991.02
2017-08-05T00:52:31.977Z,991.03
2017-08-05T00:53:31.981Z,990.99
2017-08-05T00:54:31.983Z,990.98
2017-08-05T00:55:31.983Z,991
2017-08-05T00:56:31.994Z,991
2017-08-05T00:57:31.990Z,990.99
2017-08-05T00:58:31.997Z,991.01
2017-08-05T00:59:31.995Z,990.99
2017-08-05T01:00:31.996Z,991.01
2017-08-05T01:01:32.000Z,991
2017-08-05T01:02:32.003Z,991
2017-08-05T01:03:32.005Z,991.01
2017-08-05T01:04:32.009Z,991
2017-08-05T01:05:32.021Z,991.01
2017-08-05T01:06:32.014Z,990.98
2017-08-05T01:07:32.015Z,990.98
2017-08-05T01:08:32.022Z,990.99
2017-08-05T01:09:32.023Z,990.93
2017-08-05T01:10:32.022Z,990.97
2017-08-05T01:11:32.026Z,990.95
2017-08-05T01:12:32.029Z,990.95
2017-08-05T01:13:32.031Z,990.93
2017-08-05T01:14:32.041Z,990.94
2017-08-05T01:15:32.086Z,990.94
2017-08-05T01:16:32.044Z,990.95
2017-08-05T01:17:32.045Z,990.96
2017-08-05T01:18:32.045Z,990.96
2017-08-05T01:19:32.049Z,991
2017-08-05T01:20:32.048Z,990.97
2017-08-05T01:21:32.050Z,990.96
2017-08-05T01:22:32.054Z,990.95
2017-08-05T01:23:32.055Z,990.94
2017-08-05T01:24:32.059Z,990.97
2017-08-05T01:25:32.060Z,990.99
2017-08-05T01:26:32.062Z,990.96
2017-08-05T01:27:32.064Z,990.98
2017-08-05T01:28:32.070Z,990.98
2017-08-05T01:29:32.070Z,991
2017-08-05T01:30:32.423Z,990.93
2017-08-05T01:31:32.076Z,990.95
2017-08-05T01:32:32.077Z,990.94
2017-08-05T01:33:32.079Z,990.95
2017-08-05T01:34:32.084Z,990.94
2017-08-05T01:35:32.085Z,990.94
2017-08-05T01:36:32.088Z,990.87
2017-08-05T01:37:32.089Z,990.89
2017-08-05T01:38:32.094Z,990.93
2017-08-05T01:39:32.094Z,990.9
2017-08-05T01:40:32.099Z,990.93
2017-08-05T01:41:32.098Z,990.91
2017-08-05T01:42:32.100Z,990.92
2017-08-05T01:43:32.104Z,990.95
2017-08-05T01:44:32.105Z,990.94
2017-08-05T01:45:36.119Z,990.96
2017-08-05T01:46:32.114Z,990.99
2017-08-05T01:47:32.125Z,990.97
2017-08-05T01:48:32.118Z,990.97
2017-08-05T01:49:32.120Z,990.98
2017-08-05T01:50:32.119Z,990.93
2017-08-05T01:51:32.122Z,990.95
2017-08-05T01:52:32.125Z,991
2017-08-05T01:53:32.134Z,990.97
2017-08-05T01:54:32.129Z,990.99
2017-08-05T01:55:32.131Z,991
2017-08-05T01:56:32.133Z,991.01
2017-08-05T01:57:32.136Z,991
2017-08-05T01:58:32.137Z,990.97
2017-08-05T01:59:32.140Z,991.03
2017-08-05T02:00:32.143Z,991.02
2017-08-05T02:01:32.159Z,991.02
2017-08-05T02:02:32.158Z,991.02
2017-08-05T02:03:32.152Z,990.94
2017-08-05T02:04:32.152Z,990.97
2017-08-05T02:05:32.159Z,991.01
2017-08-05T02:06:32.174Z,990.99
2017-08-05T02:07:32.158Z,990.98
2017-08-05T02:08:32.165Z,990.95
2017-08-05T02:09:32.164Z,990.96
2017-08-05T02:10:32.167Z,990.97
2017-08-05T02:11:32.173Z,990.91
2017-08-05T02:12:32.171Z,990.95
2017-08-05T02:13:32.185Z,990.96
2017-08-05T02:14:32.176Z,990.96
2017-08-05T02:15:32.179Z,990.95
2017-08-05T02:16:32.181Z,990.96
2017-08-05T02:17:32.182Z,990.89
2017-08-05T02:18:32.185Z,990.91
2017-08-05T02:19:32.186Z,990.9
2017-08-05T02:20:32.206Z,990.88
2017-08-05T02:21:32.191Z,990.86
2017-08-05T02:22:32.212Z,990.9
2017-08-05T02:23:32.205Z,990.89
2017-08-05T02:24:32.208Z,990.89
2017-08-05T02:25:32.206Z,990.85
2017-08-05T02:26:32.206Z,990.85
2017-08-05T02:27:32.210Z,990.84
2017-08-05T02:28:32.207Z,990.82
2017-08-05T02:29:32.212Z,990.84
2017-08-05T02:30:32.212Z,990.86
2017-08-05T02:31:32.213Z,990.86
2017-08-05T02:32:32.215Z,990.84
2017-08-05T02:33:32.217Z,990.86
2017-08-05T02:34:32.219Z,990.85
2017-08-05T02:35:32.230Z,990.84
2017-08-05T02:36:32.224Z,990.83
2017-08-05T02:37:32.232Z,990.83
2017-08-05T02:38:32.228Z,990.8
2017-08-05T02:39:32.231Z,990.78
2017-08-05T02:40:32.234Z,990.77
2017-08-05T02:41:32.235Z,990.75
2017-08-05T02:42:32.237Z,990.71
2017-08-05T02:43:32.240Z,990.73
2017-08-05T02:44:32.244Z,990.71
2017-08-05T02:45:32.244Z,990.72
2017-08-05T02:46:32.295Z,990.72
2017-08-05T02:47:32.251Z,990.7
2017-08-05T02:48:32.252Z,990.73
2017-08-05T02:49:32.253Z,990.65
2017-08-05T02:50:32.255Z,990.64
2017-08-05T02:51:32.257Z,990.64
2017-08-05T02:52:32.265Z,990.63
2017-08-05T02:53:32.262Z,990.6
2017-08-05T02:54:32.264Z,990.59
2017-08-05T02:55:32.298Z,990.58
2017-08-05T02:56:32.281Z,990.51
2017-08-05T02:57:32.277Z,990.54
2017-08-05T02:58:32.280Z,990.55
2017-08-05T02:59:32.285Z,990.53
2017-08-05T03:00:32.292Z,990.54
2017-08-05T03:01:35.438Z,990.52
2017-08-05T03:02:32.284Z,990.5
2017-08-05T03:03:32.284Z,990.51
2017-08-05T03:04:32.286Z,990.47
2017-08-05T03:05:32.288Z,990.46
2017-08-05T03:06:32.291Z,990.46
2017-08-05T03:07:32.292Z,990.47
2017-08-05T03:08:32.294Z,990.44
2017-08-05T03:09:32.300Z,990.45
2017-08-05T03:10:32.303Z,990.48
2017-08-05T03:11:32.303Z,990.45
2017-08-05T03:12:32.302Z,990.45
2017-08-05T03:13:32.307Z,990.43
2017-08-05T03:14:32.305Z,990.44
2017-08-05T03:15:32.311Z,990.43
2017-08-05T03:16:32.314Z,990.4
2017-08-05T03:17:32.312Z,990.39
2017-08-05T03:18:32.316Z,990.41
2017-08-05T03:19:32.319Z,990.36
2017-08-05T03:20:32.320Z,990.31
2017-08-05T03:21:32.320Z,990.37
2017-08-05T03:22:32.332Z,990.35
2017-08-05T03:23:32.326Z,990.37
2017-08-05T03:24:32.329Z,990.4
2017-08-05T03:25:32.328Z,990.4
2017-08-05T03:26:32.330Z,990.36
2017-08-05T03:27:32.332Z,990.34
2017-08-05T03:28:32.334Z,990.34
2017-08-05T03:29:32.353Z,990.34
2017-08-05T03:30:32.340Z,990.34
2017-08-05T03:31:32.341Z,990.37
2017-08-05T03:32:32.341Z,990.36
2017-08-05T03:33:32.343Z,990.3
2017-08-05T03:34:32.345Z,990.26
2017-08-05T03:35:32.357Z,990.29
2017-08-05T03:36:32.349Z,990.27
2017-08-05T03:37:32.351Z,990.25
2017-08-05T03:38:32.354Z,990.22
2017-08-05T03:39:32.356Z,990.21
2017-08-05T03:40:32.364Z,990.19
2017-08-05T03:41:32.358Z,990.2
2017-08-05T03:42:32.360Z,990.2
2017-08-05T03:43:32.364Z,990.22
2017-08-05T03:44:32.366Z,990.18
2017-08-05T03:45:32.367Z,990.2
2017-08-05T03:46:32.371Z,990.18
2017-08-05T03:47:32.371Z,990.15
2017-08-05T03:48:32.374Z,990.2
2017-08-05T03:49:32.380Z,990.13
2017-08-05T03:50:32.379Z,990.17
2017-08-05T03:51:32.392Z,990.15
2017-08-05T03:52:32.380Z,990.15
2017-08-05T03:53:32.384Z,990.14
2017-08-05T03:54:32.389Z,990.15
2017-08-05T03:55:32.388Z,990.14
2017-08-05T03:56:32.395Z,990.16
2017-08-05T03:57:32.398Z,990.2
2017-08-05T03:58:32.397Z,990.2
2017-08-05T03:59:32.396Z,990.2
2017-08-05T04:00:32.400Z,990.19
2017-08-05T04:01:32.403Z,990.24
2017-08-05T04:02:32.405Z,990.29
2017-08-05T04:03:32.412Z,990.3
2017-08-05T04:04:32.408Z,990.29
2017-08-05T04:05:32.410Z,990.31
2017-08-05T04:06:32.412Z,990.36
2017-08-05T04:07:32.416Z,990.34
2017-08-05T04:08:32.418Z,990.34
2017-08-05T04:09:32.418Z,990.35
2017-08-05T04:10:32.421Z,990.32
2017-08-05T04:11:32.424Z,990.34
2017-08-05T04:12:32.426Z,990.34
2017-08-05T04:13:32.427Z,990.34
2017-08-05T04:14:32.429Z,990.32
2017-08-05T04:15:32.435Z,990.39
2017-08-05T04:16:32.434Z,990.36
2017-08-05T04:17:32.486Z,990.33
2017-08-05T04:18:32.437Z,990.37
2017-08-05T04:19:32.440Z,990.35
2017-08-05T04:20:32.443Z,990.38
2017-08-05T04:21:32.446Z,990.37
2017-08-05T04:22:32.446Z,990.39
2017-08-05T04:23:32.452Z,990.4
2017-08-05T04:24:32.452Z,990.33
2017-08-05T04:25:32.454Z,990.34
2017-08-05T04:26:32.458Z,990.33
2017-08-05T04:27:32.458Z,990.31
2017-08-05T04:28:32.461Z,990.33
2017-08-05T04:29:32.470Z,990.31
2017-08-05T04:30:32.466Z,990.28
2017-08-05T04:31:32.468Z,990.31
2017-08-05T04:32:33.473Z,990.31
2017-08-05T04:33:32.474Z,990.38
2017-08-05T04:34:32.476Z,990.39
2017-08-05T04:35:32.477Z,990.39
2017-08-05T04:36:32.486Z,990.35
2017-08-05T04:37:32.485Z,990.39
2017-08-05T04:38:32.486Z,990.37
2017-08-05T04:39:32.489Z,990.45
2017-08-05T04:40:32.492Z,990.4
2017-08-05T04:41:32.495Z,990.38
2017-08-05T04:42:32.496Z,990.34
2017-08-05T04:43:32.500Z,990.33
2017-08-05T04:44:32.503Z,990.32
2017-08-05T04:45:32.506Z,990.27
2017-08-05T04:46:32.508Z,990.33
2017-08-05T04:47:32.512Z,990.34
2017-08-05T04:48:32.515Z,990.31
2017-08-05T04:49:32.517Z,990.26
2017-08-05T04:50:32.524Z,990.31
2017-08-05T04:51:32.523Z,990.34
2017-08-05T04:52:32.528Z,990.38
2017-08-05T04:53:32.530Z,990.26
2017-08-05T04:54:32.534Z,990.36
2017-08-05T04:55:32.549Z,990.34
2017-08-05T04:56:32.543Z,990.24
2017-08-05T04:57:32.546Z,990.15
2017-08-05T04:58:32.552Z,990.22
2017-08-05T04:59:32.556Z,990.03
2017-08-05T05:00:32.558Z,990
2017-08-05T05:01:32.561Z,990
2017-08-05T05:02:32.574Z,989.98
2017-08-05T05:03:32.576Z,990
2017-08-05T05:04:32.580Z,989.98
2017-08-05T05:05:32.579Z,989.97
2017-08-05T05:06:32.583Z,989.94
2017-08-05T05:07:32.587Z,989.99
2017-08-05T05:08:32.591Z,989.93
2017-08-05T05:09:32.594Z,989.94
2017-08-05T05:10:32.598Z,989.97
2017-08-05T05:11:32.601Z,989.96
2017-08-05T05:12:32.606Z,989.91
2017-08-05T05:13:32.609Z,989.96
2017-08-05T05:14:32.613Z,989.96
2017-08-05T05:15:32.615Z,989.97
2017-08-05T05:16:32.621Z,989.99
2017-08-05T05:17:32.622Z,990.03
2017-08-05T05:18:32.627Z,990.04
2017-08-05T05:19:32.629Z,990.07
2017-08-05T05:20:32.634Z,990.07
2017-08-05T05:21:32.643Z,990.08
2017-08-05T05:22:32.644Z,990.09
2017-08-05T05:23:32.646Z,990.07
2017-08-05T05:24:32.647Z,990.18
2017-08-05T05:25:32.650Z,990.28
2017-08-05T05:26:32.653Z,990.02
2017-08-05T05:27:32.655Z,990.01
2017-08-05T05:28:32.661Z,990
2017-08-05T05:29:32.667Z,990.02
2017-08-05T05:30:32.666Z,990.02
2017-08-05T05:31:32.672Z,989.97
2017-08-05T05:32:32.675Z,989.97
2017-08-05T05:33:32.677Z,989.97
2017-08-05T05:34:32.681Z,989.94
2017-08-05T05:35:32.687Z,989.98
2017-08-05T05:36:32.689Z,990.02
2017-08-05T05:37:32.693Z,990.04
2017-08-05T05:38:32.700Z,990.1
2017-08-05T05:39:32.702Z,990.13
2017-08-05T05:40:32.703Z,990.16
2017-08-05T05:41:32.707Z,990.19
2017-08-05T05:42:32.712Z,990.12
2017-08-05T05:43:32.716Z,990.16
2017-08-05T05:44:32.719Z,990.1
2017-08-05T05:45:32.722Z,990.09
2017-08-05T05:46:32.726Z,990.15
2017-08-05T05:47:32.730Z,990.18
2017-08-05T05:48:32.734Z,990.21
2017-08-05T05:49:32.737Z,990.23
2017-08-05T05:50:32.744Z,990.23
2017-08-05T05:51:32.744Z,990.24
2017-08-05T05:52:32.748Z,990.25
2017-08-05T05:53:32.751Z,990.28
2017-08-05T05:54:32.756Z,990.3
2017-08-05T05:55:32.762Z,990.22
2017-08-05T05:56:32.765Z,990.21
2017-08-05T05:57:32.767Z,990.2
2017-08-05T05:58:32.775Z,990.18
2017-08-05T05:59:32.776Z,990.19
2017-08-05T06:00:32.778Z,990.24
2017-08-05T06:01:32.782Z,990.23
2017-08-05T06:02:32.789Z,990.22
2017-08-05T06:03:35.393Z,990.24
2017-08-05T06:04:32.794Z,990.2
2017-08-05T06:05:32.798Z,990.22
2017-08-05T06:06:32.800Z,990.2
2017-08-05T06:07:32.806Z,990.22
2017-08-05T06:08:32.810Z,990.27
2017-08-05T06:09:32.816Z,990.29
2017-08-05T06:10:32.817Z,990.27
2017-08-05T06:11:32.821Z,990.38
2017-08-05T06:12:32.826Z,990.31
2017-08-05T06:13:32.831Z,990.29
2017-08-05T06:14:32.833Z,990.31
2017-08-05T06:15:32.845Z,990.3
2017-08-05T06:16:32.845Z,990.32
2017-08-05T06:17:32.850Z,990.3
2017-08-05T06:18:32.848Z,990.32
2017-08-05T06:19:32.852Z,990.32
2017-08-05T06:20:32.855Z,990.26
2017-08-05T06:21:32.860Z,990.26
2017-08-05T06:22:32.863Z,990.3
2017-08-05T06:23:32.866Z,990.26
2017-08-05T06:24:32.871Z,990.33
2017-08-05T06:25:32.873Z,990.32
2017-08-05T06:26:32.878Z,990.28
2017-08-05T06:27:32.883Z,990.25
2017-08-05T06:28:32.886Z,990.2
2017-08-05T06:29:32.891Z,990.23
2017-08-05T06:30:32.911Z,990.34
2017-08-05T06:31:32.905Z,990.24
2017-08-05T06:32:32.902Z,990.2
2017-08-05T06:33:32.910Z,990.16
2017-08-05T06:34:32.913Z,990.21
2017-08-05T06:35:32.919Z,990.17
2017-08-05T06:36:32.919Z,990.14
2017-08-05T06:37:32.935Z,990.14
2017-08-05T06:38:32.931Z,990.29
2017-08-05T06:39:32.934Z,990.15
2017-08-05T06:40:32.940Z,990.12
2017-08-05T06:41:32.944Z,990.02
2017-08-05T06:42:32.948Z,989.98
2017-08-05T06:43:32.953Z,989.87
2017-08-05T06:44:32.959Z,989.89
2017-08-05T06:45:32.968Z,989.93
2017-08-05T06:46:32.968Z,989.87
2017-08-05T06:47:32.978Z,989.89
2017-08-05T06:48:32.978Z,989.91
2017-08-05T06:49:32.983Z,989.97
2017-08-05T06:50:32.987Z,990.03
2017-08-05T06:51:32.992Z,990.01
2017-08-05T06:52:32.997Z,990.11
2017-08-05T06:53:33.003Z,990.08
2017-08-05T06:54:33.010Z,990.12
2017-08-05T06:55:33.013Z,990.23
2017-08-05T06:56:33.019Z,990.12
2017-08-05T06:57:33.025Z,990.1
2017-08-05T06:58:33.030Z,990
2017-08-05T06:59:33.036Z,989.99
2017-08-05T07:00:33.043Z,989.83
2017-08-05T07:01:33.048Z,990
2017-08-05T07:02:33.057Z,989.95
2017-08-05T07:03:33.062Z,989.99
2017-08-05T07:04:33.067Z,989.97
2017-08-05T07:05:33.074Z,990
2017-08-05T07:06:33.084Z,990.01
2017-08-05T07:07:33.088Z,989.98
2017-08-05T07:08:33.097Z,989.96
2017-08-05T07:09:33.105Z,989.96
2017-08-05T07:10:33.117Z,989.93
2017-08-05T07:11:33.120Z,989.96
2017-08-05T07:12:33.128Z,990
2017-08-05T07:13:33.137Z,989.97
2017-08-05T07:14:33.144Z,989.99
2017-08-05T07:15:33.153Z,989.97
2017-08-05T07:16:33.163Z,989.97
2017-08-05T07:17:33.171Z,989.96
2017-08-05T07:18:33.179Z,989.93
2017-08-05T07:19:33.197Z,989.92
2017-08-05T07:20:33.197Z,989.93
2017-08-05T07:21:33.207Z,989.91
2017-08-05T07:22:33.219Z,989.87
2017-08-05T07:23:33.224Z,989.85
2017-08-05T07:24:33.233Z,989.82
2017-08-05T07:25:33.244Z,989.82
2017-08-05T07:26:33.253Z,989.79
2017-08-05T07:27:33.263Z,989.8
2017-08-05T07:28:33.284Z,989.76
2017-08-05T07:29:33.291Z,989.72
2017-08-05T07:30:33.292Z,989.81
2017-08-05T07:31:33.304Z,989.77
2017-08-05T07:32:33.310Z,989.77
2017-08-05T07:33:33.329Z,989.76
2017-08-05T07:34:34.581Z,989.73
2017-08-05T07:35:33.337Z,989.76
2017-08-05T07:36:33.346Z,989.74
2017-08-05T07:37:33.352Z,989.73
2017-08-05T07:38:33.365Z,989.73
2017-08-05T07:39:33.373Z,989.72
2017-08-05T07:40:33.384Z,989.74
2017-08-05T07:41:33.388Z,989.69
2017-08-05T07:42:33.395Z,989.67
2017-08-05T07:43:33.405Z,989.7
2017-08-05T07:44:33.418Z,989.71
2017-08-05T07:45:33.426Z,989.67
2017-08-05T07:46:33.431Z,989.66
2017-08-05T07:47:33.445Z,989.68
2017-08-05T07:48:33.451Z,989.71
2017-08-05T07:49:33.470Z,989.68
2017-08-05T07:50:33.468Z,989.71
2017-08-05T07:51:33.478Z,989.71
2017-08-05T07:52:33.490Z,989.7
2017-08-05T07:53:33.496Z,989.74
2017-08-05T07:54:33.513Z,989.71
2017-08-05T07:55:33.516Z,989.66
2017-08-05T07:56:33.524Z,989.64
2017-08-05T07:57:33.534Z,989.58
2017-08-05T07:58:33.544Z,989.59
2017-08-05T07:59:33.560Z,989.62
2017-08-05T08:00:33.561Z,989.68
2017-08-05T08:01:33.570Z,989.67
2017-08-05T08:02:33.597Z,989.66
2017-08-05T08:03:33.588Z,989.64
2017-08-05T08:04:33.604Z,989.66
2017-08-05T08:05:33.606Z,989.65
2017-08-05T08:06:33.615Z,989.68
2017-08-05T08:07:33.625Z,989.69
2017-08-05T08:08:33.641Z,989.68
2017-08-05T08:09:33.668Z,989.73
2017-08-05T08:10:33.653Z,989.75
2017-08-05T08:11:33.667Z,989.72
2017-08-05T08:12:33.678Z,989.72
2017-08-05T08:13:33.681Z,989.69
2017-08-05T08:14:33.699Z,989.6
2017-08-05T08:15:33.700Z,989.57
2017-08-05T08:16:33.719Z,989.62
2017-08-05T08:17:33.727Z,989.56
2017-08-05T08:18:33.731Z,989.56
2017-08-05T08:19:33.756Z,989.63
2017-08-05T08:20:33.953Z,989.64
2017-08-05T08:21:33.757Z,989.6
2017-08-05T08:22:33.776Z,989.6
2017-08-05T08:23:33.778Z,989.51
2017-08-05T08:24:33.802Z,989.47
2017-08-05T08:25:33.795Z,989.57
2017-08-05T08:26:33.809Z,989.48
2017-08-05T08:27:33.811Z,989.46
2017-08-05T08:28:33.821Z,989.53
2017-08-05T08:29:33.840Z,989.49
2017-08-05T08:30:33.839Z,989.55
2017-08-05T08:31:33.845Z,989.48
2017-08-05T08:32:33.851Z,989.49
2017-08-05T08:33:33.866Z,989.54
2017-08-05T08:34:33.869Z,989.51
2017-08-05T08:35:35.177Z,989.52
2017-08-05T08:36:33.880Z,989.58
2017-08-05T08:37:33.889Z,989.56
2017-08-05T08:38:33.895Z,989.55
2017-08-05T08:39:33.907Z,989.49
2017-08-05T08:40:33.911Z,989.5
2017-08-05T08:41:33.929Z,989.39
2017-08-05T08:42:33.932Z,989.48
2017-08-05T08:43:33.941Z,989.46
2017-08-05T08:44:33.965Z,989.43
2017-08-05T08:45:33.950Z,989.48
2017-08-05T08:46:33.964Z,989.43
2017-08-05T08:47:33.968Z,989.41
2017-08-05T08:48:33.976Z,989.41
2017-08-05T08:49:33.997Z,989.44
2017-08-05T08:50:33.993Z,989.42
2017-08-05T08:51:34.002Z,989.45
2017-08-05T08:52:34.012Z,989.4
2017-08-05T08:53:34.018Z,989.37
2017-08-05T08:54:34.044Z,989.38
2017-08-05T08:55:34.038Z,989.42
2017-08-05T08:56:34.043Z,989.38
2017-08-05T08:57:34.054Z,989.38
2017-08-05T08:58:34.059Z,989.35
2017-08-05T08:59:34.072Z,989.49
2017-08-05T09:00:34.075Z,989.43
2017-08-05T09:01:34.091Z,989.41
2017-08-05T09:02:34.090Z,989.47
2017-08-05T09:03:34.098Z,989.47
2017-08-05T09:04:34.123Z,989.49
2017-08-05T09:05:34.113Z,989.46
2017-08-05T09:06:34.120Z,989.42
2017-08-05T09:07:34.133Z,989.48
2017-08-05T09:08:34.135Z,989.52
2017-08-05T09:09:34.154Z,989.52
2017-08-05T09:10:34.151Z,989.58
2017-08-05T09:11:34.959Z,989.66
2017-08-05T09:12:34.165Z,989.73
2017-08-05T09:13:34.171Z,989.71
2017-08-05T09:14:34.195Z,989.71
2017-08-05T09:15:34.188Z,989.65
2017-08-05T09:16:34.193Z,989.63
2017-08-05T09:17:34.200Z,989.54
2017-08-05T09:18:34.224Z,989.53
2017-08-05T09:19:34.235Z,989.52
2017-08-05T09:20:34.221Z,989.41
2017-08-05T09:21:34.228Z,989.45
2017-08-05T09:22:34.235Z,989.44
2017-08-05T09:23:34.242Z,989.49
2017-08-05T09:24:34.271Z,989.53
2017-08-05T09:25:34.256Z,989.57
2017-08-05T09:26:34.266Z,989.5
2017-08-05T09:27:34.271Z,989.56
2017-08-05T09:28:34.276Z,989.57
2017-08-05T09:29:34.289Z,989.55
2017-08-05T09:30:34.295Z,989.57
2017-08-05T09:31:34.298Z,989.51
2017-08-05T09:32:34.306Z,989.49
2017-08-05T09:33:34.312Z,989.45
2017-08-05T09:34:34.326Z,989.43
2017-08-05T09:35:34.326Z,989.42
2017-08-05T09:36:34.331Z,989.41
2017-08-05T09:37:34.340Z,989.42
2017-08-05T09:38:34.345Z,989.37
2017-08-05T09:39:34.364Z,989.44
2017-08-05T09:40:34.370Z,989.36
2017-08-05T09:41:34.367Z,989.49
2017-08-05T09:42:34.373Z,989.54
2017-08-05T09:43:34.384Z,989.4
2017-08-05T09:44:34.398Z,989.36
2017-08-05T09:45:34.393Z,989.32
2017-08-05T09:46:34.400Z,989.25
2017-08-05T09:47:34.408Z,989.35
2017-08-05T09:48:34.415Z,989.29
2017-08-05T09:49:34.428Z,989.3
2017-08-05T09:50:34.429Z,989.26
2017-08-05T09:51:34.435Z,989.28
2017-08-05T09:52:34.443Z,989.25
2017-08-05T09:53:34.448Z,989.19
2017-08-05T09:54:34.457Z,989.21
2017-08-05T09:55:34.464Z,989.18
2017-08-05T09:56:34.472Z,989.21
2017-08-05T09:57:34.478Z,989.15
2017-08-05T09:58:34.500Z,989.16
2017-08-05T09:59:34.506Z,989.17
2017-08-05T10:00:34.513Z,989.15
2017-08-05T10:01:34.505Z,989.15
2017-08-05T10:02:34.514Z,989.2
2017-08-05T10:03:34.522Z,989.14
2017-08-05T10:04:34.532Z,989.19
2017-08-05T10:05:34.538Z,989.07
2017-08-05T10:06:34.545Z,989.1
2017-08-05T10:07:34.551Z,989.06
2017-08-05T10:08:34.569Z,989.07
2017-08-05T10:09:34.581Z,989.06
2017-08-05T10:10:34.576Z,989.09
2017-08-05T10:11:34.581Z,989.03
2017-08-05T10:12:34.588Z,989.03
2017-08-05T10:13:34.596Z,988.99
2017-08-05T10:14:34.603Z,989.01
2017-08-05T10:15:34.609Z,989.04
2017-08-05T10:16:34.616Z,988.98
2017-08-05T10:17:34.623Z,988.94
2017-08-05T10:18:34.630Z,988.96
2017-08-05T10:19:34.636Z,988.96
2017-08-05T10:20:34.644Z,988.93
2017-08-05T10:21:34.652Z,989.06
2017-08-05T10:22:34.708Z,989.1
2017-08-05T10:23:34.665Z,989.06
2017-08-05T10:24:34.674Z,989.07
2017-08-05T10:25:34.678Z,989.12
2017-08-05T10:26:34.687Z,989.16
2017-08-05T10:27:34.694Z,989.25
2017-08-05T10:28:34.702Z,989.3
2017-08-05T10:29:34.709Z,989.32
2017-08-05T10:30:34.715Z,989.28
2017-08-05T10:31:34.728Z,989.24
2017-08-05T10:32:34.730Z,989.24
2017-08-05T10:33:34.735Z,989.13
2017-08-05T10:34:34.746Z,989.15
2017-08-05T10:35:34.751Z,989.13
2017-08-05T10:36:34.758Z,989.16
2017-08-05T10:37:36.868Z,989.22
2017-08-05T10:38:34.777Z,989.16
2017-08-05T10:39:34.788Z,989.19
2017-08-05T10:40:34.790Z,989.14
2017-08-05T10:41:34.810Z,989.09
2017-08-05T10:42:34.803Z,989.05
2017-08-05T10:43:34.810Z,989.12
2017-08-05T10:44:34.817Z,989.1
2017-08-05T10:45:34.826Z,989.03
2017-08-05T10:46:34.832Z,989.06
2017-08-05T10:47:34.840Z,989.09
2017-08-05T10:48:34.848Z,989.15
2017-08-05T10:49:34.856Z,989.09
2017-08-05T10:50:34.866Z,989.04
2017-08-05T10:51:34.872Z,989.18
2017-08-05T10:52:34.878Z,989.15
2017-08-05T10:53:34.900Z,989.09
2017-08-05T10:54:34.892Z,989.07
2017-08-05T10:55:34.898Z,989.1
2017-08-05T10:56:34.906Z,989.09
2017-08-05T10:57:34.918Z,989.19
2017-08-05T10:58:34.920Z,989.19
2017-08-05T10:59:34.927Z,989.2
2017-08-05T11:00:34.944Z,989.14
2017-08-05T11:01:34.955Z,989.09
2017-08-05T11:02:34.948Z,989.15
2017-08-05T11:03:34.956Z,989.17
2017-08-05T11:04:34.966Z,989.23
2017-08-05T11:05:34.972Z,989.31
2017-08-05T11:06:34.987Z,989.28
2017-08-05T11:07:34.988Z,989.21
2017-08-05T11:08:35.006Z,989.13
2017-08-05T11:09:35.003Z,989.11
2017-08-05T11:10:35.008Z,989.28
2017-08-05T11:11:35.038Z,989.15
2017-08-05T11:12:35.034Z,989.09
2017-08-05T11:13:35.028Z,989.11
2017-08-05T11:14:35.037Z,989.2
2017-08-05T11:15:35.043Z,989.11
2017-08-05T11:16:35.059Z,989.1
2017-08-05T11:17:35.063Z,989.11
2017-08-05T11:18:35.083Z,989.09
2017-08-05T11:19:35.082Z,989.1
2017-08-05T11:20:35.081Z,989.05
2017-08-05T11:21:35.099Z,988.98
2017-08-05T11:22:35.100Z,989.09
2017-08-05T11:23:35.158Z,989.03
2017-08-05T11:24:35.114Z,989.1
2017-08-05T11:25:35.118Z,988.98
2017-08-05T11:26:35.126Z,988.93
2017-08-05T11:27:35.135Z,988.83
2017-08-05T11:28:35.142Z,988.86
2017-08-05T11:29:35.148Z,988.78
2017-08-05T11:30:35.160Z,988.84
2017-08-05T11:31:35.163Z,988.89
2017-08-05T11:32:35.178Z,988.9
2017-08-05T11:33:35.181Z,988.87
2017-08-05T11:34:35.192Z,988.93
2017-08-05T11:35:35.196Z,988.97
2017-08-05T11:36:35.204Z,988.9
2017-08-05T11:37:35.212Z,988.87
2017-08-05T11:38:37.121Z,988.8
2017-08-05T11:39:35.226Z,988.81
2017-08-05T11:40:35.240Z,988.89
2017-08-05T11:41:35.245Z,988.87
2017-08-05T11:42:35.256Z,988.92
2017-08-05T11:43:35.258Z,988.91
2017-08-05T11:44:35.267Z,989
2017-08-05T11:45:35.275Z,988.98
2017-08-05T11:46:35.280Z,988.82
2017-08-05T11:47:35.287Z,988.74
2017-08-05T11:48:35.296Z,988.76
2017-08-05T11:49:35.304Z,988.66
2017-08-05T11:50:35.309Z,988.52
2017-08-05T11:51:35.315Z,988.48
2017-08-05T11:52:35.325Z,988.59
2017-08-05T11:53:35.331Z,988.44
2017-08-05T11:54:35.338Z,988.44
2017-08-05T11:55:35.349Z,988.43
2017-08-05T11:56:35.354Z,988.38
2017-08-05T11:57:35.362Z,988.41
2017-08-05T11:58:35.367Z,988.42
2017-08-05T11:59:35.384Z,988.42
2017-08-05T12:00:35.386Z,988.4
2017-08-05T12:01:35.388Z,988.43
2017-08-05T12:02:35.398Z,988.47
2017-08-05T12:03:35.404Z,988.53
2017-08-05T12:04:35.411Z,988.4
2017-08-05T12:05:35.418Z,988.46
2017-08-05T12:06:35.424Z,988.58
2017-08-05T12:07:35.430Z,988.45
2017-08-05T12:08:35.437Z,988.46
2017-08-05T12:09:35.448Z,988.51
2017-08-05T12:10:35.454Z,988.62
2017-08-05T12:11:35.520Z,988.51
2017-08-05T12:12:35.464Z,988.58
2017-08-05T12:13:35.473Z,988.6
2017-08-05T12:14:35.481Z,988.63
2017-08-05T12:15:35.487Z,988.62
2017-08-05T12:16:35.494Z,988.63
2017-08-05T12:17:35.502Z,988.73
2017-08-05T12:18:35.509Z,988.67
2017-08-05T12:19:35.515Z,988.58
2017-08-05T12:20:35.523Z,988.57
2017-08-05T12:21:35.531Z,988.55
2017-08-05T12:22:35.534Z,988.43
2017-08-05T12:23:35.546Z,988.62
2017-08-05T12:24:35.554Z,988.59
2017-08-05T12:25:35.560Z,988.63
2017-08-05T12:26:35.569Z,988.67
2017-08-05T12:27:35.573Z,988.64
2017-08-05T12:28:35.581Z,988.6
2017-08-05T12:29:35.585Z,988.62
2017-08-05T12:30:35.591Z,988.63
2017-08-05T12:31:35.598Z,988.61
2017-08-05T12:32:35.605Z,988.59